createdAt,value
2018-07-20T00:00:34.444Z,42.70
2018-07-20T00:03:03.334Z,43.30
2018-07-20T00:05:32.149Z,42.80
2018-07-20T00:08:01.321Z,43.40
2018-07-20T00:10:30.333Z,43.70
2018-07-20T00:12:59.152Z,43.30
2018-07-20T00:15:28.021Z,43.30
2018-07-20T00:17:56.823Z,43.50
2018-07-20T00:20:25.718Z,44.00
2018-07-20T00:22:54.550Z,44.40
2018-07-20T00:25:23.347Z,44.30
2018-07-20T00:27:52.210Z,44.50
2018-07-20T00:30:21.048Z,45.00
2018-07-20T00:32:49.856Z,45.10
2018-07-20T00:35:19.035Z,44.60
2018-07-20T00:37:47.871Z,44.40
2018-07-20T00:40:16.931Z,44.30
2018-07-20T00:42:45.787Z,44.70
2018-07-20T00:45:14.617Z,44.60
2018-07-20T00:47:44.402Z,45.00
2018-07-20T00:50:13.296Z,44.90
2018-07-20T00:52:42.195Z,45.00
2018-07-20T00:55:11.017Z,44.90
2018-07-20T00:57:39.844Z,45.40
2018-07-20T01:00:08.643Z,44.60
2018-07-20T01:02:37.459Z,44.40
2018-07-20T01:05:06.406Z,44.80
2018-07-20T01:07:35.275Z,44.60
2018-07-20T01:10:04.116Z,44.00
2018-07-20T01:12:32.952Z,44.60
2018-07-20T01:15:01.770Z,44.40
2018-07-20T01:17:30.597Z,43.90
2018-07-20T01:19:59.423Z,43.90
2018-07-20T01:22:28.262Z,44.00
2018-07-20T01:24:57.102Z,44.50
2018-07-20T01:27:25.931Z,43.90
2018-07-20T01:29:54.744Z,44.20
2018-07-20T01:32:23.748Z,44.10
2018-07-20T01:34:52.666Z,44.30
2018-07-20T01:37:21.489Z,44.50
2018-07-20T01:39:50.318Z,44.50
2018-07-20T01:42:19.154Z,45.10
2018-07-20T01:44:47.984Z,45.40
2018-07-20T01:47:16.999Z,45.30
2018-07-20T01:49:45.823Z,44.90
2018-07-20T01:52:14.630Z,45.00
2018-07-20T01:54:43.449Z,45.20
2018-07-20T01:57:12.235Z,45.30
2018-07-20T01:59:41.072Z,45.80
2018-07-20T02:02:09.931Z,45.40
2018-07-20T02:04:38.760Z,45.40
2018-07-20T02:07:07.606Z,45.50
2018-07-20T02:09:36.462Z,46.00
2018-07-20T02:12:05.319Z,45.90
2018-07-20T02:14:34.196Z,46.00
2018-07-20T02:19:31.527Z,45.40
2018-07-20T02:22:00.356Z,45.90
2018-07-20T02:24:29.191Z,46.00
2018-07-20T02:26:58.014Z,45.90
2018-07-20T02:29:26.850Z,45.80
2018-07-20T02:31:55.649Z,46.10
2018-07-20T02:34:24.456Z,45.70
2018-07-20T02:36:53.343Z,45.90
2018-07-20T02:39:22.173Z,46.40
2018-07-20T02:41:51.008Z,46.10
2018-07-20T02:44:20.273Z,45.80
2018-07-20T02:46:49.143Z,46.30
2018-07-20T02:49:17.992Z,46.50
2018-07-20T02:51:46.820Z,47.30
2018-07-20T02:54:15.639Z,47.10
2018-07-20T02:56:44.465Z,47.20
2018-07-20T02:59:13.306Z,47.00
2018-07-20T03:01:42.101Z,47.40
2018-07-20T03:04:10.948Z,47.30
2018-07-20T03:06:39.759Z,47.20
2018-07-20T03:09:10.063Z,47.40
2018-07-20T03:11:38.851Z,47.40
2018-07-20T03:14:07.777Z,47.50
2018-07-20T03:16:37.042Z,47.90
2018-07-20T03:19:06.003Z,48.10
2018-07-20T03:21:34.845Z,48.20
2018-07-20T03:24:03.709Z,48.40
2018-07-20T03:26:32.548Z,48.50
2018-07-20T03:29:01.396Z,48.70
2018-07-20T03:31:30.248Z,49.00
2018-07-20T03:33:59.115Z,49.50
2018-07-20T03:36:27.932Z,49.50
2018-07-20T03:38:56.762Z,49.10
2018-07-20T03:41:25.851Z,49.80
2018-07-20T03:43:54.710Z,49.90
2018-07-20T03:46:23.512Z,49.50
2018-07-20T03:48:52.356Z,49.50
2018-07-20T03:51:21.117Z,49.40
2018-07-20T03:53:49.945Z,49.70
2018-07-20T03:56:18.801Z,49.80
2018-07-20T03:58:47.644Z,49.80
2018-07-20T04:01:16.466Z,49.90
2018-07-20T04:03:45.280Z,49.60
2018-07-20T04:06:14.103Z,49.40
2018-07-20T04:08:42.940Z,49.30
2018-07-20T04:11:11.793Z,49.60
2018-07-20T04:13:40.608Z,49.30
2018-07-20T04:16:09.478Z,49.30
2018-07-20T04:18:38.287Z,49.30
2018-07-20T04:21:07.206Z,49.40
2018-07-20T04:23:36.599Z,49.40
2018-07-20T04:26:05.730Z,49.80
2018-07-20T04:28:34.587Z,49.40
2018-07-20T04:31:03.414Z,49.50
2018-07-20T04:33:32.349Z,49.00
2018-07-20T04:36:01.141Z,49.00
2018-07-20T04:38:29.968Z,48.80
2018-07-20T04:40:58.788Z,48.80
2018-07-20T04:43:27.614Z,49.10
2018-07-20T04:45:56.455Z,48.80
2018-07-20T04:48:25.283Z,48.50
2018-07-20T04:50:54.105Z,48.30
2018-07-20T04:53:37.620Z,48.20
2018-07-20T04:56:06.436Z,48.10
2018-07-20T04:58:35.297Z,47.90
2018-07-20T05:01:04.131Z,47.70
2018-07-20T05:03:32.983Z,47.90
2018-07-20T05:06:01.951Z,48.00
2018-07-20T05:08:31.100Z,48.50
2018-07-20T05:11:00.163Z,48.50
2018-07-20T05:13:29.091Z,48.70
2018-07-20T05:15:58.200Z,48.30
2018-07-20T05:18:27.243Z,48.40
2018-07-20T05:20:56.465Z,48.40
2018-07-20T05:23:25.506Z,48.50
2018-07-20T05:25:54.356Z,48.10
2018-07-20T05:28:23.668Z,47.60
2018-07-20T05:30:52.484Z,48.00
2018-07-20T05:33:21.292Z,47.90
2018-07-20T05:35:50.216Z,47.90
2018-07-20T05:38:19.064Z,47.70
2018-07-20T05:40:47.927Z,47.60
2018-07-20T05:43:16.963Z,47.50
2018-07-20T05:45:46.063Z,47.20
2018-07-20T05:48:15.126Z,47.30
2018-07-20T05:50:43.998Z,47.20
2018-07-20T05:53:13.465Z,47.20
2018-07-20T05:55:42.990Z,47.50
2018-07-20T05:58:12.653Z,47.40
2018-07-20T06:00:41.474Z,47.30
2018-07-20T06:03:10.339Z,47.50
2018-07-20T06:05:39.342Z,47.30
2018-07-20T06:08:08.772Z,47.30
2018-07-20T06:10:38.045Z,47.20
2018-07-20T06:13:06.917Z,47.30
2018-07-20T06:15:35.784Z,47.30
2018-07-20T06:18:07.770Z,47.20
2018-07-20T06:20:36.657Z,47.10
2018-07-20T06:25:34.271Z,46.90
2018-07-20T06:28:03.108Z,47.30
2018-07-20T06:30:31.940Z,46.40
2018-07-20T06:33:00.807Z,45.90
2018-07-20T06:35:29.673Z,45.60
2018-07-20T06:37:58.540Z,45.40
2018-07-20T06:40:27.583Z,45.10
2018-07-20T06:42:56.483Z,44.80
2018-07-20T06:45:25.917Z,44.50
2018-07-20T06:47:55.108Z,44.00
2018-07-20T06:50:23.992Z,43.70
2018-07-20T06:52:52.862Z,43.30
2018-07-20T06:55:21.693Z,42.40
2018-07-20T06:57:50.549Z,42.80
2018-07-20T07:00:19.398Z,43.00
2018-07-20T07:02:48.218Z,42.30
2018-07-20T07:05:17.135Z,41.90
2018-07-20T07:07:45.961Z,41.30
2018-07-20T07:10:14.861Z,40.90
2018-07-20T07:12:43.665Z,40.70
2018-07-20T07:15:12.530Z,40.40
2018-07-20T07:17:41.505Z,40.00
2018-07-20T07:20:10.320Z,39.80
2018-07-20T07:22:39.179Z,40.10
2018-07-20T07:25:08.057Z,39.80
2018-07-20T07:27:36.887Z,39.50
2018-07-20T07:30:05.741Z,39.40
2018-07-20T07:32:34.563Z,38.70
2018-07-20T07:35:04.449Z,38.20
2018-07-20T07:37:33.316Z,38.50
2018-07-20T07:40:02.191Z,38.30
2018-07-20T07:42:31.112Z,37.80
2018-07-20T07:45:00.020Z,37.40
2018-07-20T07:47:28.966Z,37.20
2018-07-20T07:49:58.188Z,36.70
2018-07-20T07:52:27.300Z,36.80
2018-07-20T07:54:56.215Z,35.90
2018-07-20T07:57:24.985Z,36.10
2018-07-20T07:59:54.256Z,35.30
2018-07-20T08:02:23.119Z,34.80
2018-07-20T08:04:52.169Z,34.70
2018-07-20T08:07:21.034Z,34.00
2018-07-20T08:09:49.893Z,33.90
2018-07-20T08:12:18.682Z,34.20
2018-07-20T08:14:47.545Z,34.10
2018-07-20T08:17:16.432Z,33.70
2018-07-20T08:19:45.821Z,33.60
2018-07-20T08:22:14.679Z,33.70
2018-07-20T08:24:43.529Z,33.40
2018-07-20T08:27:12.323Z,32.50
2018-07-20T08:29:41.170Z,32.30
2018-07-20T08:32:09.997Z,32.50
2018-07-20T08:34:38.926Z,32.90
2018-07-20T08:37:07.810Z,32.10
2018-07-20T08:42:05.268Z,31.40
2018-07-20T08:44:34.069Z,30.80
2018-07-20T08:47:02.914Z,30.50
2018-07-20T08:49:32.670Z,31.10
2018-07-20T08:52:01.507Z,31.30
2018-07-20T08:54:30.341Z,30.50
2018-07-20T08:56:59.209Z,30.80
2018-07-20T08:59:28.075Z,31.20
2018-07-20T09:01:56.913Z,30.30
2018-07-20T09:04:25.755Z,30.10
2018-07-20T09:06:54.574Z,29.90
2018-07-20T09:09:23.441Z,30.90
2018-07-20T09:11:53.278Z,29.80
2018-07-20T09:14:22.403Z,29.70
2018-07-20T09:16:51.268Z,30.00
2018-07-20T09:19:20.109Z,29.80
2018-07-20T09:21:48.947Z,29.20
2018-07-20T09:24:17.757Z,28.80
2018-07-20T09:26:46.608Z,28.70
2018-07-20T09:29:15.463Z,29.40
2018-07-20T09:31:44.292Z,29.20
2018-07-20T09:34:13.179Z,28.70
2018-07-20T09:36:41.963Z,28.70
2018-07-20T09:39:11.758Z,29.10
2018-07-20T09:41:40.954Z,29.70
2018-07-20T09:44:09.793Z,29.10
2018-07-20T09:46:38.631Z,29.10
2018-07-20T09:49:07.428Z,28.80
2018-07-20T09:51:36.273Z,29.00
2018-07-20T09:54:05.085Z,28.50
2018-07-20T09:56:33.899Z,27.80
2018-07-20T09:59:02.762Z,28.10
2018-07-20T10:01:31.807Z,27.00
2018-07-20T10:04:00.649Z,26.80
2018-07-20T10:06:29.516Z,27.10
2018-07-20T10:08:58.407Z,27.00
2018-07-20T10:11:27.886Z,27.20
2018-07-20T10:13:56.814Z,26.60
2018-07-20T10:16:25.645Z,27.00
2018-07-20T10:18:54.520Z,26.80
2018-07-20T10:21:23.472Z,26.10
2018-07-20T10:23:52.318Z,25.90
2018-07-20T10:26:21.327Z,26.70
2018-07-20T10:28:50.180Z,26.60
2018-07-20T10:31:19.279Z,27.20
2018-07-20T10:33:48.272Z,27.50
2018-07-20T10:36:17.113Z,27.40
2018-07-20T10:38:45.933Z,27.00
2018-07-20T10:41:14.770Z,25.20
2018-07-20T10:43:43.600Z,25.50
2018-07-20T10:46:12.489Z,26.00
2018-07-20T10:48:41.370Z,26.00
2018-07-20T10:51:10.195Z,25.90
2018-07-20T10:53:39.039Z,26.10
2018-07-20T10:56:07.892Z,26.40
2018-07-20T10:58:36.769Z,26.70
2018-07-20T11:01:05.609Z,25.40
2018-07-20T11:03:34.507Z,24.20
2018-07-20T11:06:03.545Z,25.00
2018-07-20T11:08:32.489Z,25.50
2018-07-20T11:11:01.376Z,25.90
2018-07-20T11:13:30.269Z,25.70
2018-07-20T11:15:59.099Z,24.40
2018-07-20T11:18:27.951Z,24.30
2018-07-20T11:20:56.789Z,24.60
2018-07-20T11:23:25.664Z,25.30
2018-07-20T11:26:01.104Z,25.60
2018-07-20T11:28:29.926Z,25.90
2018-07-20T11:30:58.760Z,24.00
2018-07-20T11:33:27.576Z,24.70
2018-07-20T11:35:56.473Z,24.60
2018-07-20T11:38:25.381Z,25.00
2018-07-20T11:40:54.230Z,25.30
2018-07-20T11:43:23.485Z,25.50
2018-07-20T11:45:53.162Z,24.40
2018-07-20T11:48:22.091Z,24.80
2018-07-20T11:50:51.027Z,25.40
2018-07-20T11:53:19.855Z,25.20
2018-07-20T11:55:48.717Z,24.90
2018-07-20T11:58:17.574Z,24.20
2018-07-20T12:00:46.411Z,23.50
2018-07-20T12:03:15.414Z,22.90
2018-07-20T12:05:44.619Z,24.30
2018-07-20T12:08:13.610Z,23.30
2018-07-20T12:10:42.454Z,22.40
2018-07-20T12:13:11.594Z,23.40
2018-07-20T12:15:41.062Z,23.90
2018-07-20T12:18:10.397Z,23.30
2018-07-20T12:23:07.822Z,24.60
2018-07-20T12:25:36.627Z,24.20
2018-07-20T12:28:05.536Z,23.90
2018-07-20T12:30:34.391Z,23.90
2018-07-20T12:33:03.216Z,23.30
2018-07-20T12:35:32.046Z,22.10
2018-07-20T12:38:00.893Z,22.70
2018-07-20T12:40:29.689Z,23.00
2018-07-20T12:42:58.601Z,23.50
2018-07-20T12:45:27.590Z,23.40
2018-07-20T12:47:57.269Z,24.50
2018-07-20T12:50:26.224Z,23.40
2018-07-20T12:52:55.362Z,23.40
2018-07-20T12:55:24.288Z,23.70
2018-07-20T12:57:53.261Z,24.00
2018-07-20T13:00:22.138Z,23.00
2018-07-20T13:02:50.999Z,23.50
2018-07-20T13:05:20.139Z,23.80
2018-07-20T13:07:50.169Z,24.30
2018-07-20T13:10:19.480Z,23.80
2018-07-20T13:12:48.316Z,23.80
2018-07-20T13:15:17.211Z,24.00
2018-07-20T13:17:46.057Z,24.20
2018-07-20T13:20:16.778Z,24.30
2018-07-20T13:22:45.627Z,22.70
2018-07-20T13:25:14.484Z,21.70
2018-07-20T13:27:43.311Z,22.10
2018-07-20T13:30:12.197Z,23.40
2018-07-20T13:32:41.089Z,24.00
2018-07-20T13:35:09.938Z,24.00
2018-07-20T13:37:38.775Z,24.10
2018-07-20T13:40:08.423Z,24.30
2018-07-20T13:42:37.285Z,24.30
2018-07-20T13:45:07.458Z,24.40
2018-07-20T13:47:36.342Z,24.50
2018-07-20T13:50:05.694Z,23.60
2018-07-20T13:52:34.634Z,24.10
2018-07-20T13:55:04.647Z,24.30
2018-07-20T13:57:33.597Z,24.30
2018-07-20T14:00:02.463Z,23.60
2018-07-20T14:02:31.352Z,24.30
2018-07-20T14:05:00.189Z,24.40
2018-07-20T14:07:29.035Z,24.40
2018-07-20T14:09:57.932Z,24.60
2018-07-20T14:12:27.301Z,24.70
2018-07-20T14:14:56.192Z,24.30
2018-07-20T14:17:25.026Z,24.30
2018-07-20T14:19:53.994Z,24.90
2018-07-20T14:22:22.837Z,24.40
2018-07-20T14:24:51.681Z,24.70
2018-07-20T14:27:20.557Z,25.00
2018-07-20T14:29:49.392Z,24.90
2018-07-20T14:32:18.247Z,24.00
2018-07-20T14:34:47.045Z,24.60
2018-07-20T14:37:15.929Z,24.10
2018-07-20T14:39:45.077Z,24.00
2018-07-20T14:42:13.947Z,24.30
2018-07-20T14:44:43.509Z,23.10
2018-07-20T14:47:12.344Z,23.80
2018-07-20T14:49:41.231Z,22.30
2018-07-20T14:52:10.130Z,24.00
2018-07-20T14:54:38.983Z,25.10
2018-07-20T14:57:07.855Z,24.80
2018-07-20T14:59:36.748Z,24.90
2018-07-20T15:02:05.652Z,25.10
2018-07-20T15:04:34.520Z,24.10
2018-07-20T15:07:03.332Z,24.30
2018-07-20T15:09:32.760Z,23.60
2018-07-20T15:12:01.559Z,24.20
2018-07-20T15:14:30.384Z,23.40
2018-07-20T15:16:59.250Z,23.80
2018-07-20T15:19:28.141Z,23.90
2018-07-20T15:21:57.418Z,23.80
2018-07-20T15:26:55.793Z,23.30
2018-07-20T15:29:24.625Z,23.10
2018-07-20T15:31:53.467Z,23.50
2018-07-20T15:34:22.317Z,23.80
2018-07-20T15:36:51.213Z,23.70
2018-07-20T15:39:20.031Z,24.60
2018-07-20T15:41:48.851Z,24.60
2018-07-20T15:44:17.689Z,24.70
2018-07-20T15:46:46.777Z,25.00
2018-07-20T15:49:15.372Z,25.10
2018-07-20T15:54:13.126Z,24.80
2018-07-20T15:56:41.967Z,25.00
2018-07-20T15:59:12.072Z,24.30
2018-07-20T16:01:40.898Z,24.80
2018-07-20T16:04:09.797Z,25.20
2018-07-20T16:06:38.896Z,24.80
2018-07-20T16:09:09.523Z,24.80
2018-07-20T16:11:38.390Z,24.90
2018-07-20T16:14:07.249Z,24.90
2018-07-20T16:16:36.200Z,25.00
2018-07-20T16:19:05.235Z,25.30
2018-07-20T16:21:34.081Z,25.30
2018-07-20T16:24:03.182Z,25.20
2018-07-20T16:26:32.041Z,24.90
2018-07-20T16:29:00.876Z,25.00
2018-07-20T16:31:29.701Z,25.20
2018-07-20T16:33:58.583Z,25.30
2018-07-20T16:36:27.445Z,25.40
2018-07-20T16:38:56.302Z,25.40
2018-07-20T16:41:25.163Z,25.50
2018-07-20T16:43:53.979Z,25.50
2018-07-20T16:46:22.820Z,25.50
2018-07-20T16:48:51.668Z,25.50
2018-07-20T16:51:20.546Z,25.50
2018-07-20T16:53:49.381Z,25.50
2018-07-20T16:56:18.476Z,25.40
2018-07-20T16:58:47.332Z,24.80
2018-07-20T17:01:16.160Z,25.10
2018-07-20T17:03:45.013Z,25.30
2018-07-20T17:06:13.820Z,25.40
2018-07-20T17:08:42.852Z,25.50
2018-07-20T17:11:11.654Z,25.70
2018-07-20T17:13:40.512Z,25.70
2018-07-20T17:16:09.359Z,25.80
2018-07-20T17:18:38.252Z,25.70
2018-07-20T17:21:07.147Z,25.90
2018-07-20T17:23:35.978Z,25.90
2018-07-20T17:26:04.843Z,25.00
2018-07-20T17:28:33.684Z,25.80
2018-07-20T17:31:02.489Z,25.70
2018-07-20T17:33:31.415Z,25.90
2018-07-20T17:36:00.311Z,26.10
2018-07-20T17:38:29.174Z,26.10
2018-07-20T17:40:58.037Z,26.20
2018-07-20T17:43:26.960Z,26.10
2018-07-20T17:45:55.862Z,26.30
2018-07-20T17:48:24.735Z,26.50
2018-07-20T17:50:53.644Z,26.60
2018-07-20T17:53:22.533Z,26.70
2018-07-20T17:55:51.796Z,26.70
2018-07-20T17:58:20.685Z,26.60
2018-07-20T18:00:49.692Z,26.70
2018-07-20T18:03:18.584Z,26.70
2018-07-20T18:05:48.414Z,26.70
2018-07-20T18:08:17.307Z,26.30
2018-07-20T18:10:46.203Z,25.80
2018-07-20T18:13:15.301Z,25.30
2018-07-20T18:15:44.198Z,25.60
2018-07-20T18:18:13.117Z,25.60
2018-07-20T18:20:42.045Z,26.20
2018-07-20T18:23:10.907Z,25.70
2018-07-20T18:25:39.717Z,26.00
2018-07-20T18:28:08.655Z,26.20
2018-07-20T18:30:37.513Z,26.30
2018-07-20T18:33:06.407Z,26.20
2018-07-20T18:35:35.326Z,25.90
2018-07-20T18:38:04.687Z,25.90
2018-07-20T18:40:33.635Z,26.20
2018-07-20T18:43:02.505Z,26.40
2018-07-20T18:45:31.408Z,26.40
2018-07-20T18:48:00.309Z,26.60
2018-07-20T18:50:29.267Z,26.70
2018-07-20T18:52:58.128Z,26.80
2018-07-20T18:55:26.957Z,26.90
2018-07-20T18:57:55.849Z,27.60
2018-07-20T19:00:24.758Z,27.20
2018-07-20T19:02:54.349Z,27.30
2018-07-20T19:05:23.812Z,27.40
2018-07-20T19:07:52.792Z,27.50
2018-07-20T19:10:22.347Z,27.60
2018-07-20T19:12:51.219Z,27.80
2018-07-20T19:15:20.130Z,27.90
2018-07-20T19:17:48.999Z,28.00
2018-07-20T19:20:17.859Z,28.10
2018-07-20T19:22:46.839Z,28.30
2018-07-20T19:25:15.678Z,28.40
2018-07-20T19:27:44.612Z,28.40
2018-07-20T19:30:13.475Z,28.70
2018-07-20T19:32:42.429Z,28.80
2018-07-20T19:35:11.260Z,29.00
2018-07-20T19:37:40.255Z,29.00
2018-07-20T19:40:09.149Z,29.10
2018-07-20T19:42:38.070Z,29.30
2018-07-20T19:45:07.858Z,29.50
2018-07-20T19:47:36.768Z,29.90
2018-07-20T19:50:05.782Z,29.70
2018-07-20T19:52:35.034Z,29.80
2018-07-20T19:55:03.890Z,29.80
2018-07-20T19:57:32.877Z,29.80
2018-07-20T20:00:01.734Z,30.50
2018-07-20T20:02:30.589Z,30.00
2018-07-20T20:04:59.487Z,30.00
2018-07-20T20:07:28.321Z,30.10
2018-07-20T20:09:57.222Z,30.10
2018-07-20T20:12:26.113Z,30.20
2018-07-20T20:14:54.947Z,30.20
2018-07-20T20:17:23.806Z,30.40
2018-07-20T20:19:52.616Z,30.50
2018-07-20T20:22:21.464Z,30.50
2018-07-20T20:24:50.429Z,30.90
2018-07-20T20:27:19.365Z,31.30
2018-07-20T20:29:48.256Z,31.30
2018-07-20T20:32:17.159Z,31.20
2018-07-20T20:34:46.009Z,31.60
2018-07-20T20:37:14.837Z,31.60
2018-07-20T20:39:43.675Z,31.50
2018-07-20T20:42:12.519Z,31.70
2018-07-20T20:44:41.357Z,31.70
2018-07-20T20:47:10.270Z,31.80
2018-07-20T20:49:39.114Z,31.90
2018-07-20T20:52:07.988Z,32.20
2018-07-20T20:54:36.812Z,32.20
2018-07-20T20:57:05.665Z,32.50
2018-07-20T20:59:34.521Z,32.20
2018-07-20T21:02:04.546Z,32.80
2018-07-20T21:04:35.402Z,32.30
2018-07-20T21:07:05.000Z,32.80
2018-07-20T21:09:33.956Z,33.00
2018-07-20T21:12:02.968Z,33.10
2018-07-20T21:14:31.653Z,33.40
2018-07-20T21:17:00.490Z,33.60
2018-07-20T21:19:29.369Z,33.50
2018-07-20T21:21:58.183Z,33.10
2018-07-20T21:24:27.719Z,33.70
2018-07-20T21:26:56.560Z,33.90
2018-07-20T21:29:25.410Z,35.10
2018-07-20T21:31:54.241Z,35.50
2018-07-20T21:34:23.118Z,34.40
2018-07-20T21:36:51.933Z,35.10
2018-07-20T21:39:20.810Z,35.60
2018-07-20T21:41:49.655Z,35.30
2018-07-20T21:46:47.201Z,34.40
2018-07-20T21:49:16.052Z,35.00
2018-07-20T21:51:44.869Z,35.20
